Time;durP1;ratioP1;P1;durP2;ratioP2;P2;SDS_P1;SDS_P2;PMS_P1;PMS_P2;Temp;Humidity;BMP_temperature;BMP_pressure;BME280_temperature;BME280_humidity;BME280_pressure;Samples;Min_cycle;Max_cycle;Signal;HPM_P1;HPM_P2
2021/03/06 00:01:23;;;;;;;1.27;0.73;;;22.20;25.10;;;;;;5030407;28;20037;-56
2021/03/06 00:03:49;;;;;;;1.65;0.70;;;22.20;25.10;;;;;;5032672;28;20033;-55
2021/03/06 00:06:15;;;;;;;1.88;0.70;;;22.30;25.20;;;;;;5032548;28;20104;-56
2021/03/06 00:08:41;;;;;;;1.10;0.60;;;22.20;25.10;;;;;;5031593;28;20041;-51
2021/03/06 00:11:06;;;;;;;1.23;0.68;;;22.20;25.10;;;;;;5032236;28;20037;-54
2021/03/06 00:13:35;;;;;;;1.95;0.95;;;22.20;25.10;;;;;;5032898;28;20025;-56
2021/03/06 00:16:02;;;;;;;1.00;0.50;;;22.20;25.20;;;;;;5031171;28;20479;-57
2021/03/06 00:18:28;;;;;;;1.08;0.60;;;22.20;25.20;;;;;;5032707;28;20033;-56
2021/03/06 00:20:53;;;;;;;1.42;0.75;;;22.20;25.20;;;;;;5028970;28;20503;-56
2021/03/06 00:23:19;;;;;;;1.60;0.88;;;22.20;25.20;;;;;;5029821;28;20044;-57
2021/03/06 00:25:45;;;;;;;1.60;0.70;;;22.10;25.10;;;;;;5031943;28;20076;-51
2021/03/06 00:28:11;;;;;;;1.45;0.80;;;22.10;25.10;;;;;;5032564;28;20030;-52
2021/03/06 00:30:37;;;;;;;1.65;0.82;;;22.20;25.20;;;;;;5011888;28;20099;-55
2021/03/06 00:33:03;;;;;;;1.80;0.60;;;22.20;25.20;;;;;;5031818;28;20379;-59
2021/03/06 00:35:29;;;;;;;1.75;0.95;;;22.10;25.10;;;;;;5031961;28;20025;-59
2021/03/06 00:37:54;;;;;;;2.00;0.80;;;22.10;25.20;;;;;;5031090;28;20033;-58
2021/03/06 00:40:20;;;;;;;1.23;0.73;;;22.10;25.20;;;;;;5027870;28;20095;-58
2021/03/06 00:42:46;;;;;;;1.23;0.70;;;22.10;25.20;;;;;;5031716;28;20022;-54
2021/03/06 00:45:12;;;;;;;0.80;0.50;;;22.10;25.20;;;;;;5031566;28;20092;-52
2021/03/06 00:47:38;;;;;;;1.15;0.60;;;22.10;25.70;;;;;;5031483;28;20063;-57
2021/03/06 00:50:12;;;;;;;1.05;0.60;;;22.10;25.20;;;;;;5031052;28;20083;-58
2021/03/06 00:52:38;;;;;;;0.98;0.57;;;22.00;25.60;;;;;;5013062;28;20025;-52
2021/03/06 00:55:05;;;;;;;1.42;0.80;;;22.10;25.20;;;;;;5031102;28;20346;-56
2021/03/06 00:57:31;;;;;;;1.52;0.80;;;22.00;25.10;;;;;;5030251;28;20449;-55
2021/03/06 00:59:57;;;;;;;1.48;0.70;;;22.00;25.20;;;;;;5030061;28;20120;-53
2021/03/06 01:02:23;;;;;;;2.08;0.60;;;22.00;25.20;;;;;;5029719;28;20472;-55
2021/03/06 01:04:50;;;;;;;1.25;0.55;;;22.00;25.20;;;;;;5032155;28;20433;-56
2021/03/06 01:07:16;;;;;;;1.40;0.68;;;22.00;25.20;;;;;;5028061;28;20124;-58
2021/03/06 01:09:41;;;;;;;1.63;0.77;;;22.00;25.20;;;;;;5032291;28;20037;-55
2021/03/06 01:12:07;;;;;;;1.88;0.82;;;22.00;25.20;;;;;;5030152;28;20094;-60
2021/03/06 01:14:33;;;;;;;2.50;0.60;;;22.00;25.20;;;;;;5031948;28;20397;-55
2021/03/06 01:16:59;;;;;;;2.22;0.73;;;22.00;25.20;;;;;;5031518;28;20025;-54
2021/03/06 01:19:25;;;;;;;1.20;0.60;;;22.00;25.20;;;;;;5033809;28;20025;-52
2021/03/06 01:21:51;;;;;;;1.90;1.00;;;22.00;25.20;;;;;;5034715;28;20448;-53
2021/03/06 01:24:17;;;;;;;1.40;0.63;;;22.00;25.20;;;;;;5031669;28;20021;-55
2021/03/06 01:26:43;;;;;;;1.98;0.70;;;22.00;25.20;;;;;;5033399;28;20135;-50
2021/03/06 01:29:09;;;;;;;1.15;0.68;;;21.90;25.20;;;;;;5035803;28;20021;-56
2021/03/06 01:31:34;;;;;;;0.85;0.55;;;21.90;25.20;;;;;;5035111;28;20326;-56
2021/03/06 01:34:00;;;;;;;1.02;0.60;;;21.90;25.20;;;;;;5033899;28;20381;-55
2021/03/06 01:36:26;;;;;;;1.25;0.63;;;21.90;25.20;;;;;;5034953;28;20334;-55
2021/03/06 01:38:51;;;;;;;1.40;0.52;;;21.90;25.20;;;;;;5035586;28;20032;-52
2021/03/06 01:41:17;;;;;;;1.63;0.68;;;21.90;25.20;;;;;;5033812;28;20033;-57
2021/03/06 01:43:43;;;;;;;1.10;0.50;;;21.90;25.20;;;;;;5034471;28;20083;-55
2021/03/06 01:46:09;;;;;;;1.83;0.60;;;21.90;25.20;;;;;;5034879;28;20033;-57
2021/03/06 01:48:35;;;;;;;1.10;0.60;;;21.90;25.30;;;;;;5032599;28;20065;-56
2021/03/06 01:51:00;;;;;;;0.82;0.50;;;21.90;25.30;;;;;;5034594;28;20048;-55
2021/03/06 01:53:26;;;;;;;1.13;0.57;;;21.80;25.20;;;;;;5034318;28;20744;-54
2021/03/06 01:55:52;;;;;;;1.75;0.68;;;21.80;25.20;;;;;;5037054;28;20338;-59
2021/03/06 01:58:18;;;;;;;2.80;0.70;;;21.80;25.20;;;;;;5036702;28;20045;-58
2021/03/06 02:00:44;;;;;;;1.27;0.75;;;21.80;25.20;;;;;;5036595;28;20030;-57
2021/03/06 02:03:10;;;;;;;0.90;0.63;;;21.80;25.30;;;;;;5038451;28;20045;-53
2021/03/06 02:05:36;;;;;;;1.60;0.60;;;21.80;25.30;;;;;;5038232;28;20349;-56
2021/03/06 02:08:03;;;;;;;1.58;0.60;;;21.80;25.30;;;;;;5037562;28;20065;-58
2021/03/06 02:10:39;;;;;;;1.58;0.70;;;21.80;25.30;;;;;;5036733;28;20441;-58
2021/03/06 02:13:27;;;;;;;1.42;0.52;;;21.80;25.40;;;;;;5032491;28;20037;-58
2021/03/06 02:16:23;;;;;;;1.00;0.50;;;21.80;25.40;;;;;;5035316;28;20429;-58
2021/03/06 02:19:00;;;;;;;1.75;0.50;;;21.80;25.40;;;;;;5032847;28;20087;-59
2021/03/06 02:21:52;;;;;;;0.90;0.45;;;21.80;25.40;;;;;;5034542;28;20404;-59
2021/03/06 02:24:41;;;;;;;0.93;0.60;;;21.80;25.40;;;;;;5034776;28;20365;-57
2021/03/06 02:27:26;;;;;;;1.30;0.57;;;21.70;25.40;;;;;;5040426;28;20339;-57
2021/03/06 02:30:00;;;;;;;0.90;0.50;;;21.70;25.40;;;;;;5039683;28;20112;-60
2021/03/06 02:32:34;;;;;;;0.95;0.55;;;21.70;25.40;;;;;;5039743;28;20037;-53
2021/03/06 02:35:13;;;;;;;1.13;0.50;;;21.70;25.40;;;;;;5040126;28;20032;-56
2021/03/06 02:37:58;;;;;;;1.52;0.57;;;21.70;25.40;;;;;;5037460;28;20033;-60
2021/03/06 02:40:25;;;;;;;1.08;0.38;;;21.70;25.40;;;;;;5034592;28;20037;-57
2021/03/06 02:42:52;;;;;;;1.15;0.50;;;21.70;25.40;;;;;;5033784;28;20437;-59
2021/03/06 02:45:20;;;;;;;0.80;0.40;;;21.70;25.50;;;;;;5034021;28;20025;-57
2021/03/06 02:47:50;;;;;;;1.45;0.60;;;21.70;25.50;;;;;;5034138;28;20514;-57
2021/03/06 02:50:16;;;;;;;1.38;0.60;;;21.70;25.50;;;;;;5033395;28;20037;-54
2021/03/06 02:52:42;;;;;;;1.48;0.57;;;21.70;25.50;;;;;;5033166;28;20163;-56
2021/03/06 02:55:10;;;;;;;0.88;0.50;;;21.70;25.50;;;;;;5033294;28;20464;-56
2021/03/06 02:58:03;;;;;;;0.88;0.30;;;21.70;25.50;;;;;;5034301;28;20049;-56
2021/03/06 03:00:39;;;;;;;2.03;0.80;;;21.70;25.50;;;;;;5031156;28;20065;-57
2021/03/06 03:03:37;;;;;;;1.23;0.60;;;21.70;25.60;;;;;;5031944;28;20489;-58
2021/03/06 03:06:22;;;;;;;1.70;0.50;;;21.70;25.50;;;;;;5031900;28;20160;-58
2021/03/06 03:09:10;;;;;;;1.50;0.55;;;21.60;25.50;;;;;;5034132;28;20061;-58
2021/03/06 03:12:02;;;;;;;1.55;0.40;;;21.60;25.50;;;;;;5032688;28;20041;-58
2021/03/06 03:14:52;;;;;;;0.45;0.30;;;21.60;25.60;;;;;;5021709;28;20060;-60
2021/03/06 03:17:28;;;;;;;0.68;0.30;;;21.60;25.60;;;;;;5033459;28;20044;-59
2021/03/06 03:20:34;;;;;;;1.23;0.50;;;21.60;25.60;;;;;;5031206;28;20037;-56
2021/03/06 03:23:14;;;;;;;0.88;0.47;;;21.60;25.60;;;;;;4999021;28;20115;-56
2021/03/06 03:25:41;;;;;;;1.10;0.52;;;21.60;25.60;;;;;;5029624;28;20112;-59
2021/03/06 03:28:09;;;;;;;1.00;0.30;;;21.60;25.60;;;;;;5033508;28;20038;-56
2021/03/06 03:30:36;;;;;;;1.15;0.50;;;21.60;25.60;;;;;;5032639;28;20075;-57
2021/03/06 03:33:05;;;;;;;1.10;0.47;;;21.60;25.70;;;;;;5033336;28;20030;-53
2021/03/06 03:35:31;;;;;;;1.25;0.60;;;21.50;25.60;;;;;;5032954;28;20130;-59
2021/03/06 03:37:58;;;;;;;2.08;0.60;;;21.50;25.60;;;;;;5031576;28;20053;-58
2021/03/06 03:40:26;;;;;;;1.17;0.50;;;21.50;25.60;;;;;;5032253;28;20030;-54
2021/03/06 03:42:52;;;;;;;1.65;0.40;;;21.50;25.60;;;;;;5033407;28;20028;-59
2021/03/06 03:45:20;;;;;;;0.73;0.40;;;21.50;25.60;;;;;;5032673;28;20025;-60
2021/03/06 03:47:46;;;;;;;0.88;0.50;;;21.50;25.60;;;;;;5031601;28;20077;-54
2021/03/06 03:50:16;;;;;;;0.90;0.40;;;21.50;25.70;;;;;;5033173;28;20429;-58
2021/03/06 03:52:45;;;;;;;0.52;0.40;;;21.50;25.70;;;;;;5032400;28;20021;-56
2021/03/06 03:55:12;;;;;;;0.93;0.40;;;21.50;25.70;;;;;;5032937;28;20029;-58
2021/03/06 03:57:38;;;;;;;1.25;0.50;;;21.50;25.70;;;;;;5031870;28;20084;-55
2021/03/06 04:00:10;;;;;;;1.08;0.40;;;21.50;25.70;;;;;;5029238;28;20166;-59
2021/03/06 04:02:36;;;;;;;1.38;0.43;;;21.50;25.70;;;;;;5032885;28;20056;-57
2021/03/06 04:05:07;;;;;;;0.90;0.43;;;21.50;25.70;;;;;;5031517;28;20480;-61
2021/03/06 04:07:44;;;;;;;1.45;0.50;;;21.50;25.70;;;;;;5030287;28;20053;-57
2021/03/06 04:10:12;;;;;;;1.40;0.50;;;21.50;25.70;;;;;;5032099;28;20021;-54
2021/03/06 04:12:42;;;;;;;0.88;0.50;;;21.50;25.70;;;;;;5031137;28;20353;-60
2021/03/06 04:15:10;;;;;;;1.38;0.50;;;21.40;25.70;;;;;;5032502;28;20037;-57
2021/03/06 04:17:36;;;;;;;1.45;0.70;;;21.40;25.70;;;;;;5032094;28;20071;-58
2021/03/06 04:20:03;;;;;;;1.25;0.50;;;21.40;25.70;;;;;;5029476;28;20448;-58
2021/03/06 04:22:29;;;;;;;0.55;0.40;;;21.40;25.70;;;;;;5031057;28;20075;-58
2021/03/06 04:24:55;;;;;;;1.25;0.57;;;21.40;25.70;;;;;;5031907;28;20045;-58
2021/03/06 04:27:21;;;;;;;0.47;0.30;;;21.40;25.70;;;;;;5032625;28;20029;-53
2021/03/06 04:29:47;;;;;;;0.93;0.40;;;21.40;25.70;;;;;;5031550;28;20025;-57
2021/03/06 04:32:13;;;;;;;0.95;0.38;;;21.40;25.70;;;;;;5032745;28;20445;-56
2021/03/06 04:34:39;;;;;;;1.92;0.60;;;21.40;25.70;;;;;;5032052;28;20025;-54
2021/03/06 04:37:04;;;;;;;0.93;0.40;;;21.40;25.70;;;;;;5032991;28;20025;-55
2021/03/06 04:39:30;;;;;;;0.90;0.40;;;21.30;25.60;;;;;;5031445;28;20116;-57
2021/03/06 04:41:56;;;;;;;1.95;0.65;;;21.40;25.70;;;;;;5033091;28;20033;-55
2021/03/06 04:44:22;;;;;;;1.73;0.60;;;21.40;25.70;;;;;;5029474;28;20125;-55
2021/03/06 04:46:48;;;;;;;1.13;0.50;;;21.40;25.70;;;;;;5031894;28;20044;-58
2021/03/06 04:49:13;;;;;;;0.95;0.50;;;21.30;25.60;;;;;;5031565;28;20045;-57
2021/03/06 04:51:39;;;;;;;0.73;0.50;;;21.40;25.70;;;;;;5030727;28;20068;-62
2021/03/06 04:54:05;;;;;;;1.08;0.40;;;21.40;25.70;;;;;;5035122;28;20093;-57
2021/03/06 04:56:31;;;;;;;1.10;0.50;;;21.30;26.20;;;;;;5036437;28;20112;-59
2021/03/06 04:58:57;;;;;;;1.88;0.65;;;21.30;25.70;;;;;;5035844;28;20049;-59
2021/03/06 05:01:22;;;;;;;1.23;0.70;;;21.30;25.70;;;;;;5034570;28;20378;-54
2021/03/06 05:03:49;;;;;;;1.05;0.40;;;21.30;25.70;;;;;;5031850;28;20033;-56
2021/03/06 05:06:15;;;;;;;1.05;0.50;;;21.30;25.70;;;;;;5035583;28;20089;-55
2021/03/06 05:08:40;;;;;;;1.75;0.60;;;21.30;25.70;;;;;;5033303;28;20033;-55
2021/03/06 05:11:07;;;;;;;0.88;0.40;;;21.30;25.70;;;;;;5035986;28;20064;-59
2021/03/06 05:13:34;;;;;;;1.70;0.52;;;21.30;25.70;;;;;;5032493;28;20036;-57
2021/03/06 05:15:59;;;;;;;2.20;0.68;;;21.30;26.30;;;;;;5036418;28;20452;-59
2021/03/06 05:18:25;;;;;;;1.40;0.50;;;21.20;25.70;;;;;;5035337;28;20022;-57
2021/03/06 05:20:51;;;;;;;1.50;0.40;;;21.20;25.70;;;;;;5035008;28;20414;-59
2021/03/06 05:23:17;;;;;;;1.02;0.40;;;21.30;25.80;;;;;;5033179;28;20059;-58
2021/03/06 05:25:43;;;;;;;1.88;0.55;;;21.20;25.70;;;;;;5035017;28;20033;-57
2021/03/06 05:28:09;;;;;;;0.98;0.47;;;21.20;25.70;;;;;;5034748;28;20044;-53
2021/03/06 05:30:34;;;;;;;0.88;0.50;;;21.20;25.70;;;;;;5035793;28;20026;-57
2021/03/06 05:33:00;;;;;;;0.90;0.40;;;21.20;25.70;;;;;;5035797;28;20026;-56
2021/03/06 05:35:26;;;;;;;1.15;0.47;;;21.20;25.70;;;;;;5032417;28;20025;-53
2021/03/06 05:37:52;;;;;;;0.95;0.40;;;21.20;25.80;;;;;;5035546;28;20336;-55
2021/03/06 05:40:19;;;;;;;1.30;0.60;;;21.20;25.70;;;;;;5034941;28;20389;-55
2021/03/06 05:42:45;;;;;;;0.70;0.40;;;21.20;25.80;;;;;;5035456;28;20053;-57
2021/03/06 05:45:11;;;;;;;0.50;0.40;;;21.20;25.80;;;;;;5032007;28;20026;-55
2021/03/06 05:47:37;;;;;;;1.08;0.45;;;21.20;25.80;;;;;;5034643;28;20033;-56
2021/03/06 05:50:05;;;;;;;0.80;0.50;;;21.20;25.80;;;;;;5033291;28;20421;-57
2021/03/06 05:52:31;;;;;;;1.75;0.60;;;21.20;25.80;;;;;;5032283;28;20107;-56
2021/03/06 05:55:00;;;;;;;1.50;0.55;;;21.20;25.80;;;;;;5034957;28;20025;-54
2021/03/06 05:57:26;;;;;;;1.60;0.40;;;21.20;25.80;;;;;;5035562;28;20033;-52
2021/03/06 05:59:52;;;;;;;0.52;0.30;;;21.20;25.80;;;;;;5030321;28;20033;-57
2021/03/06 06:02:19;;;;;;;1.15;0.45;;;21.20;25.80;;;;;;5033351;28;20037;-59
2021/03/06 06:04:46;;;;;;;0.77;0.38;;;21.20;25.80;;;;;;5033139;28;20117;-55
2021/03/06 06:07:16;;;;;;;0.98;0.73;;;21.20;25.80;;;;;;5034106;28;20034;-53
2021/03/06 06:09:42;;;;;;;1.20;0.40;;;21.20;25.90;;;;;;5034250;28;20022;-53
2021/03/06 06:12:09;;;;;;;1.55;0.47;;;21.10;25.80;;;;;;5032935;28;20457;-55
2021/03/06 06:14:34;;;;;;;1.70;0.60;;;21.20;25.90;;;;;;5034707;28;20417;-60
2021/03/06 06:17:08;;;;;;;1.55;0.50;;;21.20;25.90;;;;;;5031764;28;20029;-55
2021/03/06 06:19:34;;;;;;;1.85;0.70;;;21.20;25.90;;;;;;5034878;28;20048;-57
2021/03/06 06:22:14;;;;;;;1.08;0.50;;;21.10;25.90;;;;;;5034808;28;20041;-56
2021/03/06 06:24:49;;;;;;;1.10;0.50;;;21.10;25.90;;;;;;5032198;28;20018;-53
2021/03/06 06:27:29;;;;;;;1.17;0.50;;;21.10;25.90;;;;;;5034360;28;20095;-59
2021/03/06 06:29:56;;;;;;;1.40;0.50;;;21.10;25.90;;;;;;5032901;28;20033;-57
2021/03/06 06:32:46;;;;;;;1.60;0.50;;;21.10;26.00;;;;;;5032195;28;20025;-57
2021/03/06 06:35:14;;;;;;;1.13;0.60;;;21.10;25.90;;;;;;5023704;28;20041;-59
2021/03/06 06:37:54;;;;;;;1.45;0.60;;;21.10;26.00;;;;;;5030310;28;20518;-59
2021/03/06 06:40:23;;;;;;;0.70;0.40;;;21.10;26.00;;;;;;5033629;28;20025;-59
2021/03/06 06:42:48;;;;;;;1.05;0.57;;;21.10;25.90;;;;;;5028941;28;20069;-55
2021/03/06 06:45:16;;;;;;;0.93;0.50;;;21.10;26.00;;;;;;5034397;28;20064;-61
2021/03/06 06:47:44;;;;;;;1.10;0.35;;;21.10;26.10;;;;;;5031835;28;20037;-60
2021/03/06 06:50:12;;;;;;;0.63;0.43;;;21.10;26.00;;;;;;5032228;28;20104;-58
2021/03/06 06:52:42;;;;;;;2.38;0.57;;;21.10;26.00;;;;;;5034205;28;20143;-61
2021/03/06 06:55:12;;;;;;;1.27;0.35;;;21.10;26.00;;;;;;5032018;28;20029;-57
2021/03/06 06:57:54;;;;;;;3.45;0.60;;;21.10;26.10;;;;;;5034630;28;20365;-58
2021/03/06 07:00:20;;;;;;;0.65;0.22;;;21.10;26.00;;;;;;5029672;28;20053;-59
2021/03/06 07:03:03;;;;;;;2.75;0.52;;;21.10;26.10;;;;;;5034382;28;20180;-60
2021/03/06 07:05:35;;;;;;;2.42;0.40;;;21.10;26.10;;;;;;5032021;28;20109;-56
2021/03/06 07:08:09;;;;;;;0.98;0.43;;;21.10;26.20;;;;;;5032415;28;20506;-60
2021/03/06 07:10:39;;;;;;;1.00;0.40;;;21.00;26.10;;;;;;5030752;28;20093;-59
2021/03/06 07:13:07;;;;;;;1.35;0.50;;;21.00;26.10;;;;;;5034272;28;20021;-57
2021/03/06 07:15:33;;;;;;;0.82;0.30;;;21.00;26.10;;;;;;5033669;28;20110;-56
2021/03/06 07:18:02;;;;;;;0.50;0.30;;;21.00;26.10;;;;;;5031949;28;20109;-57
2021/03/06 07:20:40;;;;;;;0.68;0.43;;;21.00;26.20;;;;;;5023378;28;20033;-56
2021/03/06 07:23:13;;;;;;;0.80;0.40;;;21.10;26.20;;;;;;5033709;28;20102;-60
2021/03/06 07:25:52;;;;;;;1.00;0.40;;;21.00;26.20;;;;;;5029725;28;20057;-52
2021/03/06 07:28:18;;;;;;;1.80;0.75;;;21.00;26.20;;;;;;5031114;28;20129;-61
2021/03/06 07:30:44;;;;;;;1.35;0.45;;;21.00;26.20;;;;;;5033465;28;20117;-52
2021/03/06 07:33:13;;;;;;;1.58;0.50;;;21.00;26.20;;;;;;5029543;28;20389;-54
2021/03/06 07:35:41;;;;;;;0.65;0.35;;;21.00;26.20;;;;;;5033416;28;20026;-55
2021/03/06 07:38:14;;;;;;;1.08;0.40;;;21.00;26.30;;;;;;5030199;28;20391;-53
2021/03/06 07:40:42;;;;;;;0.60;0.40;;;21.00;26.30;;;;;;5032722;28;20436;-60
2021/03/06 07:43:12;;;;;;;1.15;0.60;;;21.00;26.30;;;;;;5029980;28;20032;-57
2021/03/06 07:45:42;;;;;;;0.85;0.43;;;21.00;26.30;;;;;;5032935;28;20041;-58
2021/03/06 07:48:11;;;;;;;1.08;0.63;;;21.00;26.30;;;;;;5028477;28;20052;-57
2021/03/06 07:50:45;;;;;;;2.05;0.40;;;21.00;26.30;;;;;;5032362;28;20045;-58
2021/03/06 07:53:15;;;;;;;1.65;0.40;;;21.00;26.30;;;;;;5033253;28;20030;-59
2021/03/06 07:55:41;;;;;;;1.45;0.50;;;21.00;26.30;;;;;;5031648;28;20021;-57
2021/03/06 07:58:07;;;;;;;1.60;0.50;;;21.00;26.30;;;;;;5029946;28;20392;-56
2021/03/06 08:00:53;;;;;;;0.82;0.50;;;21.00;26.30;;;;;;5032416;28;20041;-58
2021/03/06 08:03:29;;;;;;;0.85;0.43;;;21.00;26.30;;;;;;5031091;28;20454;-57
2021/03/06 08:05:59;;;;;;;1.65;0.60;;;21.00;26.30;;;;;;5030694;28;20099;-55
2021/03/06 08:08:34;;;;;;;1.20;0.50;;;21.00;26.40;;;;;;5032646;28;20042;-56
2021/03/06 08:11:11;;;;;;;1.80;0.60;;;21.00;26.50;;;;;;5030719;28;20049;-58
2021/03/06 08:13:40;;;;;;;3.05;0.90;;;21.00;26.60;;;;;;5032849;28;20021;-63
2021/03/06 08:16:28;;;;;;;1.70;0.63;;;21.00;26.70;;;;;;5031602;28;20364;-59
2021/03/06 08:18:56;;;;;;;1.95;0.70;;;21.00;26.80;;;;;;5032745;28;20375;-58
2021/03/06 08:21:30;;;;;;;3.50;0.70;;;21.00;26.90;;;;;;5030538;28;20108;-58
2021/03/06 08:24:14;;;;;;;2.17;0.70;;;21.10;27.10;;;;;;5028660;28;20026;-56
2021/03/06 08:27:02;;;;;;;2.25;0.80;;;21.10;27.20;;;;;;5030152;28;20060;-54
2021/03/06 08:29:28;;;;;;;3.10;0.60;;;21.20;27.30;;;;;;5032060;28;20029;-52
2021/03/06 08:31:54;;;;;;;1.30;0.40;;;21.20;27.40;;;;;;5034072;28;20360;-54
2021/03/06 08:34:30;;;;;;;1.98;0.60;;;21.30;27.50;;;;;;5033627;28;20037;-56
2021/03/06 08:37:19;;;;;;;1.38;0.60;;;21.40;27.60;;;;;;5034506;28;20037;-53
2021/03/06 08:39:59;;;;;;;1.27;0.40;;;21.50;27.70;;;;;;5034716;28;20064;-53
2021/03/06 08:42:39;;;;;;;1.45;0.55;;;21.50;27.70;;;;;;5029345;28;20033;-51
2021/03/06 08:45:13;;;;;;;1.60;0.60;;;21.60;27.70;;;;;;5033132;28;20102;-52
2021/03/06 08:47:41;;;;;;;2.08;0.60;;;21.70;27.70;;;;;;5037240;28;20037;-52
2021/03/06 08:50:12;;;;;;;1.58;0.50;;;21.80;27.70;;;;;;5032220;28;20030;-55
2021/03/06 08:52:39;;;;;;;2.00;0.93;;;21.90;27.70;;;;;;5036569;28;20049;-50
2021/03/06 08:55:07;;;;;;;1.65;0.82;;;22.00;27.70;;;;;;5018405;28;20041;-54
2021/03/06 08:57:38;;;;;;;0.98;0.52;;;22.10;27.70;;;;;;5018410;28;20034;-49
2021/03/06 09:00:21;;;;;;;1.33;0.50;;;22.20;27.60;;;;;;5037328;28;20139;-53
2021/03/06 09:02:49;;;;;;;2.35;0.80;;;22.30;27.60;;;;;;5036271;28;20037;-56
2021/03/06 09:05:24;;;;;;;1.95;0.65;;;22.40;27.50;;;;;;5029874;28;20021;-55
2021/03/06 09:07:53;;;;;;;1.63;0.60;;;22.50;27.50;;;;;;5025005;28;20048;-56
2021/03/06 09:10:21;;;;;;;2.00;0.57;;;22.50;27.40;;;;;;5028580;28;20038;-51
2021/03/06 09:12:50;;;;;;;0.88;0.40;;;22.60;27.40;;;;;;5037218;28;20095;-57
2021/03/06 09:15:30;;;;;;;1.92;0.65;;;22.70;27.30;;;;;;5037140;28;20037;-53
2021/03/06 09:17:57;;;;;;;1.63;0.50;;;22.80;27.30;;;;;;5037762;28;20033;-52
2021/03/06 09:20:24;;;;;;;2.55;0.70;;;22.80;27.20;;;;;;5033498;28;20440;-56
2021/03/06 09:22:50;;;;;;;2.42;0.77;;;22.80;27.10;;;;;;5032450;28;20444;-52
2021/03/06 09:25:40;;;;;;;1.38;0.75;;;22.90;27.20;;;;;;5030022;28;20123;-50
2021/03/06 09:28:11;;;;;;;0.77;0.55;;;22.90;27.10;;;;;;5007291;28;20479;-55
2021/03/06 09:30:39;;;;;;;1.13;0.55;;;22.90;27.10;;;;;;5027923;28;20115;-57
2021/03/06 09:33:25;;;;;;;1.15;0.60;;;23.00;27.10;;;;;;5019312;28;20029;-53
2021/03/06 09:35:58;;;;;;;2.05;0.73;;;23.00;27.00;;;;;;5034259;28;20040;-52
2021/03/06 09:38:24;;;;;;;1.40;0.57;;;23.10;27.00;;;;;;5036543;28;20287;-57
2021/03/06 09:40:50;;;;;;;1.85;0.70;;;23.10;26.90;;;;;;5026908;28;20038;-54
2021/03/06 09:43:29;;;;;;;1.25;0.45;;;23.10;26.90;;;;;;5023365;28;20029;-55
2021/03/06 09:45:57;;;;;;;0.95;0.40;;;23.10;26.90;;;;;;5033979;28;20441;-53
2021/03/06 09:48:24;;;;;;;2.65;0.55;;;23.00;26.80;;;;;;5035069;28;20037;-61
2021/03/06 09:50:54;;;;;;;1.30;0.65;;;23.00;26.90;;;;;;5031403;28;20441;-50
2021/03/06 09:53:28;;;;;;;1.15;0.40;;;23.00;26.90;;;;;;5033353;28;20311;-54
2021/03/06 09:56:16;;;;;;;0.80;0.50;;;23.00;27.10;;;;;;5026192;28;20029;-54
2021/03/06 09:59:04;;;;;;;1.38;0.50;;;23.10;27.10;;;;;;5027250;28;20049;-54
2021/03/06 10:01:34;;;;;;;1.50;0.60;;;23.10;27.10;;;;;;5030280;28;20421;-57
2021/03/06 10:04:15;;;;;;;1.60;0.57;;;23.10;27.20;;;;;;5022862;28;20052;-58
2021/03/06 10:06:45;;;;;;;0.70;0.40;;;23.20;27.10;;;;;;5032212;28;20029;-51
2021/03/06 10:09:13;;;;;;;1.00;0.50;;;23.20;27.10;;;;;;5033113;28;20041;-56
2021/03/06 10:11:55;;;;;;;0.88;0.38;;;23.30;27.00;;;;;;5026197;28;20041;-56
2021/03/06 10:14:25;;;;;;;2.05;0.40;;;23.40;26.90;;;;;;5022985;28;20025;-53
2021/03/06 10:17:07;;;;;;;1.10;0.40;;;23.40;26.90;;;;;;5021926;28;20459;-57
2021/03/06 10:19:48;;;;;;;0.50;0.30;;;23.50;26.80;;;;;;5029646;28;20076;-53
2021/03/06 10:22:18;;;;;;;0.70;0.30;;;23.60;26.70;;;;;;5033675;28;20125;-57
2021/03/06 10:24:57;;;;;;;0.52;0.30;;;23.60;26.60;;;;;;5019372;28;20372;-56
2021/03/06 10:27:47;;;;;;;0.93;0.38;;;23.60;26.50;;;;;;5022894;28;20045;-57
2021/03/06 10:30:19;;;;;;;0.63;0.40;;;23.60;26.40;;;;;;5019096;28;20437;-53
2021/03/06 10:32:47;;;;;;;1.30;0.40;;;23.70;26.40;;;;;;5024169;28;20026;-58
2021/03/06 10:35:31;;;;;;;1.77;0.30;;;23.70;26.30;;;;;;5024820;28;20393;-53
2021/03/06 10:37:57;;;;;;;1.20;0.20;;;23.80;26.20;;;;;;5027829;28;20037;-48
2021/03/06 10:40:43;;;;;;;0.17;0.15;;;23.80;26.10;;;;;;5028219;28;20044;-52
2021/03/06 10:43:10;;;;;;;0.75;0.30;;;23.80;26.00;;;;;;5031026;28;20345;-53
2021/03/06 10:45:39;;;;;;;0.43;0.20;;;23.70;25.90;;;;;;5018922;28;20035;-57
2021/03/06 10:48:06;;;;;;;0.93;0.30;;;23.80;25.90;;;;;;5015746;28;20046;-58
2021/03/06 10:50:39;;;;;;;0.68;0.30;;;23.70;25.80;;;;;;5028593;28;20096;-56
2021/03/06 10:53:21;;;;;;;0.60;0.32;;;23.70;26.10;;;;;;5019019;28;20038;-58
2021/03/06 10:55:48;;;;;;;0.82;0.30;;;23.80;25.60;;;;;;5032416;28;20037;-58
2021/03/06 10:58:15;;;;;;;0.32;0.25;;;23.70;25.50;;;;;;5034714;28;20131;-62
2021/03/06 11:00:43;;;;;;;0.68;0.35;;;23.70;25.30;;;;;;5028111;28;20037;-60
2021/03/06 11:03:11;;;;;;;0.75;0.30;;;23.70;25.20;;;;;;5016834;28;20034;-58
2021/03/06 11:05:38;;;;;;;1.33;0.22;;;23.60;25.00;;;;;;5030578;28;20412;-62
2021/03/06 11:08:30;;;;;;;0.90;0.20;;;23.60;24.90;;;;;;5015602;28;20042;-60
2021/03/06 11:10:55;;;;;;;0.50;0.20;;;23.60;24.70;;;;;;5011791;28;20133;-60
2021/03/06 11:13:21;;;;;;;0.98;0.28;;;23.60;24.70;;;;;;5015556;28;20516;-59
2021/03/06 11:15:53;;;;;;;0.65;0.20;;;23.60;24.60;;;;;;5015299;28;20084;-59
2021/03/06 11:18:20;;;;;;;2.33;0.30;;;23.60;24.50;;;;;;5015205;28;20030;-60
2021/03/06 11:20:47;;;;;;;0.63;0.20;;;23.60;24.40;;;;;;5014261;28;20116;-59
2021/03/06 11:23:13;;;;;;;0.38;0.13;;;23.60;24.30;;;;;;5026716;28;20037;-61
2021/03/06 11:25:40;;;;;;;0.70;0.40;;;23.50;24.20;;;;;;5024552;28;20115;-58
2021/03/06 11:28:07;;;;;;;0.60;0.22;;;23.50;24.20;;;;;;5018557;28;20044;-60
2021/03/06 11:30:42;;;;;;;3.72;1.13;;;23.50;24.10;;;;;;5022379;28;20417;-59
2021/03/06 11:33:09;;;;;;;;;;;23.50;24.20;;;;;;5020546;28;20372;-60
2021/03/06 11:35:36;;;;;;;1.58;0.50;;;23.50;24.40;;;;;;5032066;28;20035;-61
2021/03/06 11:38:03;;;;;;;0.73;0.30;;;23.50;24.50;;;;;;5031730;28;20047;-60
2021/03/06 11:40:32;;;;;;;0.63;0.47;;;23.50;24.60;;;;;;5013575;28;20084;-60
2021/03/06 11:42:59;;;;;;;1.67;0.73;;;23.50;24.70;;;;;;5014475;28;20038;-60
2021/03/06 11:45:25;;;;;;;2.03;1.13;;;23.50;24.70;;;;;;5018221;28;20026;-60
2021/03/06 11:47:52;;;;;;;2.78;1.80;;;23.50;24.80;;;;;;5019152;28;20033;-58
2021/03/06 11:50:21;;;;;;;3.72;2.78;;;23.50;24.90;;;;;;5025553;28;20033;-60
2021/03/06 11:52:48;;;;;;;5.75;3.20;;;23.50;25.00;;;;;;5029858;28;20117;-59
2021/03/06 11:55:14;;;;;;;6.40;4.63;;;23.50;25.00;;;;;;5021907;28;20145;-60
2021/03/06 11:57:41;;;;;;;8.32;5.57;;;23.50;25.10;;;;;;5031818;28;20034;-58
2021/03/06 12:00:13;;;;;;;8.48;5.70;;;23.60;25.10;;;;;;5026441;28;20045;-58
2021/03/06 12:02:39;;;;;;;10.30;7.22;;;23.60;25.20;;;;;;5031943;28;20104;-58
2021/03/06 12:05:07;;;;;;;9.27;7.32;;;23.60;25.30;;;;;;5032746;28;20048;-60
2021/03/06 12:07:33;;;;;;;12.23;8.75;;;23.60;25.30;;;;;;5020860;28;20095;-59
2021/03/06 12:09:59;;;;;;;12.75;8.70;;;23.60;25.30;;;;;;5021737;28;20049;-58
2021/03/06 12:12:25;;;;;;;12.80;9.88;;;23.60;25.40;;;;;;5031797;28;20073;-60
2021/03/06 12:14:51;;;;;;;14.05;9.95;;;23.60;25.40;;;;;;5027785;28;20132;-60
2021/03/06 12:17:16;;;;;;;14.32;11.02;;;23.60;25.40;;;;;;5024216;28;20029;-60
2021/03/06 12:19:42;;;;;;;18.70;12.88;;;23.60;25.50;;;;;;5026630;28;20064;-60
2021/03/06 12:22:08;;;;;;;15.90;12.40;;;23.60;25.50;;;;;;5017488;28;20033;-61
2021/03/06 12:24:34;;;;;;;17.50;12.85;;;23.60;25.50;;;;;;5029873;28;20485;-61
2021/03/06 12:27:00;;;;;;;17.63;12.65;;;23.60;25.60;;;;;;5030835;28;20041;-61
2021/03/06 12:29:26;;;;;;;19.33;13.90;;;23.70;25.60;;;;;;5028897;28;20033;-60
2021/03/06 12:31:52;;;;;;;19.83;14.50;;;23.60;25.60;;;;;;5031470;28;20025;-59
2021/03/06 12:34:18;;;;;;;21.58;15.15;;;23.60;25.60;;;;;;5030295;28;20474;-60
2021/03/06 12:36:44;;;;;;;23.80;16.90;;;23.60;25.70;;;;;;5032931;28;20382;-59
2021/03/06 12:39:11;;;;;;;23.73;16.83;;;23.70;25.80;;;;;;5028337;28;20064;-60
2021/03/06 12:41:37;;;;;;;24.25;17.77;;;23.60;25.80;;;;;;5032795;28;20441;-59
2021/03/06 12:44:04;;;;;;;26.20;18.13;;;23.70;25.80;;;;;;5031621;28;20045;-55
2021/03/06 12:46:31;;;;;;;24.05;18.38;;;23.70;25.90;;;;;;5030725;28;20453;-59
2021/03/06 12:48:57;;;;;;;28.92;19.65;;;23.70;25.80;;;;;;5028332;28;20041;-61
2021/03/06 12:51:23;;;;;;;26.15;18.83;;;23.70;25.90;;;;;;5026962;28;20026;-60
2021/03/06 12:53:49;;;;;;;31.15;20.45;;;23.60;25.80;;;;;;5032395;28;20339;-56
2021/03/06 12:56:14;;;;;;;27.33;20.17;;;23.60;25.90;;;;;;5020863;28;20029;-61
2021/03/06 12:58:40;;;;;;;27.05;20.42;;;23.60;25.90;;;;;;5026450;28;20048;-52
2021/03/06 13:01:06;;;;;;;27.45;19.80;;;23.60;25.90;;;;;;5025111;28;20055;-54